createdAt,value
2023-04-25T00:01:03.263Z,97489.13
2023-04-25T00:04:08.451Z,97485.84
2023-04-25T00:07:12.650Z,97488.00
2023-04-25T00:10:16.501Z,97489.63
2023-04-25T00:13:20.382Z,97494.50
2023-04-25T00:16:24.859Z,97491.00
2023-04-25T00:19:30.304Z,97498.84
2023-04-25T00:22:35.333Z,97494.25
2023-04-25T00:25:39.192Z,97492.38
2023-04-25T00:28:42.972Z,97498.84
2023-04-25T00:31:46.871Z,97500.72
2023-04-25T00:34:51.899Z,97495.56
2023-04-25T00:37:56.965Z,97495.09
2023-04-25T00:41:00.785Z,97498.84
2023-04-25T00:44:08.225Z,97504.22
2023-04-25T00:47:13.763Z,97497.78
2023-04-25T00:50:19.025Z,97501.84
2023-04-25T00:53:23.762Z,97505.88
2023-04-25T00:56:28.170Z,97498.84
2023-04-25T00:59:32.917Z,97499.91
2023-04-25T01:02:38.325Z,97491.00
2023-04-25T01:05:44.442Z,97495.56
2023-04-25T01:08:48.327Z,97495.56
2023-04-25T01:11:52.375Z,97494.50
2023-04-25T01:14:57.138Z,97492.38
2023-04-25T01:18:02.062Z,97499.66
2023-04-25T01:21:12.794Z,97506.88
2023-04-25T01:24:16.511Z,97507.38
2023-04-25T01:27:22.946Z,97504.03
2023-04-25T01:30:29.466Z,97498.59
2023-04-25T01:33:33.621Z,97502.13
2023-04-25T01:36:39.503Z,97498.38
2023-04-25T01:39:43.995Z,97504.56
2023-04-25T01:42:48.292Z,97500.00
2023-04-25T01:45:52.842Z,97504.00
2023-04-25T01:48:56.832Z,97507.19
2023-04-25T01:52:02.130Z,97516.09
2023-04-25T01:55:06.860Z,97512.00
2023-04-25T01:58:14.009Z,97509.50
2023-04-25T02:01:35.194Z,97523.22
2023-04-25T02:04:52.556Z,97516.09
2023-04-25T02:07:57.938Z,97513.19
2023-04-25T02:11:04.389Z,97504.97
2023-04-25T02:14:15.142Z,97510.53
2023-04-25T02:17:28.084Z,97514.22
2023-04-25T02:20:32.689Z,97514.44
2023-04-25T02:23:37.991Z,97512.25
2023-04-25T02:26:41.480Z,97521.97
2023-04-25T02:29:46.393Z,97529.97
2023-04-25T02:32:50.048Z,97517.47
2023-04-25T02:35:53.801Z,97519.34
2023-04-25T02:39:01.246Z,97512.09
2023-04-25T02:42:05.429Z,97522.53
2023-04-25T02:45:10.661Z,97523.06
2023-04-25T02:48:14.952Z,97516.28
2023-04-25T02:51:18.473Z,97515.22
2023-04-25T02:54:23.595Z,97514.06
2023-04-25T02:57:27.174Z,97522.13
2023-04-25T03:00:31.271Z,97526.13
2023-04-25T03:03:35.027Z,97517.47
2023-04-25T03:06:38.863Z,97518.81
2023-04-25T03:09:43.716Z,97516.66
2023-04-25T03:12:47.511Z,97515.03
2023-04-25T03:15:51.523Z,97520.91
2023-04-25T03:18:56.296Z,97520.50
2023-04-25T03:22:00.262Z,97517.50
2023-04-25T03:25:06.959Z,97516.69
2023-04-25T03:28:10.727Z,97520.41
2023-04-25T03:31:14.700Z,97520.66
2023-04-25T03:34:18.417Z,97524.41
2023-04-25T03:37:22.296Z,97529.22
2023-04-25T03:40:27.647Z,97522.38
2023-04-25T03:43:57.376Z,97535.25
2023-04-25T03:47:01.174Z,97537.81
2023-04-25T03:50:05.904Z,97535.38
2023-04-25T03:53:09.709Z,97530.22
2023-04-25T03:56:34.846Z,97536.44
2023-04-25T03:59:52.319Z,97538.56
2023-04-25T04:02:56.855Z,97538.31
2023-04-25T04:06:00.935Z,97549.56
2023-04-25T04:09:05.503Z,97543.25
2023-04-25T04:12:14.393Z,97546.19
2023-04-25T04:15:19.198Z,97567.47
2023-04-25T04:18:24.012Z,97550.75
2023-04-25T04:21:28.572Z,97560.22
2023-04-25T04:24:32.100Z,97559.41
2023-04-25T04:27:41.555Z,97558.59
2023-04-25T04:31:03.941Z,97566.66
2023-04-25T04:34:07.927Z,97563.38
2023-04-25T04:37:14.019Z,97565.41
2023-04-25T04:40:19.746Z,97558.16
2023-04-25T04:43:33.640Z,97558.97
2023-04-25T04:47:00.569Z,97552.44
2023-04-25T04:50:08.295Z,97558.63
2023-04-25T04:53:38.087Z,97566.34
2023-04-25T04:56:53.442Z,97565.88
2023-04-25T05:00:18.001Z,97576.63
2023-04-25T05:03:22.027Z,97582.47
2023-04-25T05:06:49.265Z,97574.66
2023-04-25T05:10:16.409Z,97588.59
2023-04-25T05:13:40.342Z,97584.28
2023-04-25T05:17:17.385Z,97588.94
2023-04-25T05:20:44.005Z,97589.19
2023-04-25T05:24:06.949Z,97590.69
2023-04-25T05:27:29.071Z,97596.75
2023-04-25T05:30:44.419Z,97590.44
2023-04-25T05:34:05.159Z,97597.63
2023-04-25T05:37:19.666Z,97600.97
2023-04-25T05:40:32.639Z,97601.09
2023-04-25T05:43:49.932Z,97597.34
2023-04-25T05:47:15.147Z,97593.13
2023-04-25T05:50:38.669Z,97612.72
2023-04-25T05:54:01.021Z,97589.63
2023-04-25T05:57:05.055Z,97598.03
2023-04-25T06:00:11.539Z,97594.06
2023-04-25T06:03:20.428Z,97607.03
2023-04-25T06:06:27.832Z,97602.94
2023-04-25T06:09:31.374Z,97610.16
2023-04-25T06:12:35.105Z,97611.88
2023-04-25T06:15:40.663Z,97606.81
2023-04-25T06:18:44.310Z,97622.56
2023-04-25T06:21:49.678Z,97590.56
2023-04-25T06:24:53.460Z,97596.88
2023-04-25T06:27:57.110Z,97606.50
2023-04-25T06:31:01.096Z,97603.66
2023-04-25T06:34:04.606Z,97603.09
2023-04-25T06:37:13.112Z,97609.19
2023-04-25T06:40:18.397Z,97610.59
2023-04-25T06:43:22.091Z,97608.59
2023-04-25T06:46:28.562Z,97610.50
2023-04-25T06:49:35.031Z,97622.72
2023-04-25T06:52:40.606Z,97614.56
2023-04-25T06:55:44.773Z,97619.91
2023-04-25T06:58:53.192Z,97609.75
2023-04-25T07:02:17.262Z,97602.59
2023-04-25T07:05:21.482Z,97610.84
2023-04-25T07:08:26.722Z,97606.44
2023-04-25T07:11:30.454Z,97603.75
2023-04-25T07:14:34.144Z,97603.06
2023-04-25T07:17:38.124Z,97602.34
2023-04-25T07:20:42.208Z,97610.69
2023-04-25T07:23:47.393Z,97609.38
2023-04-25T07:26:55.717Z,97604.41
2023-04-25T07:30:14.654Z,97610.84
2023-04-25T07:33:18.360Z,97613.25
2023-04-25T07:36:22.693Z,97623.66
2023-04-25T07:39:27.866Z,97620.41
2023-04-25T07:42:31.751Z,97618.84
2023-04-25T07:45:35.887Z,97618.28
2023-04-25T07:48:39.811Z,97612.50
2023-04-25T07:51:44.507Z,97611.81
2023-04-25T07:54:52.892Z,97617.94
2023-04-25T07:58:02.143Z,97623.25
2023-04-25T08:01:08.280Z,97628.59
2023-04-25T08:04:11.805Z,97615.16
2023-04-25T08:07:42.721Z,97623.94
2023-04-25T08:10:49.057Z,97631.09
2023-04-25T08:13:54.289Z,97631.00
2023-04-25T08:16:59.280Z,97626.72
2023-04-25T08:20:06.985Z,97622.31
2023-04-25T08:23:11.782Z,97620.84
2023-04-25T08:26:27.547Z,97623.25
2023-04-25T08:29:31.020Z,97623.25
2023-04-25T08:32:35.332Z,97621.88
2023-04-25T08:36:11.445Z,97620.50
2023-04-25T08:39:15.306Z,97626.09
2023-04-25T08:42:36.753Z,97643.31
2023-04-25T08:45:43.277Z,97644.53
2023-04-25T08:48:58.075Z,97631.19
2023-04-25T08:52:06.756Z,97639.19
2023-04-25T08:55:15.338Z,97657.38
2023-04-25T08:58:21.333Z,97640.94
2023-04-25T09:01:25.954Z,97649.44
2023-04-25T09:04:33.026Z,97648.88
2023-04-25T09:07:36.798Z,97643.06
2023-04-25T09:10:43.103Z,97642.56
2023-04-25T09:13:48.724Z,97654.84
2023-04-25T09:17:08.867Z,97648.47
2023-04-25T09:20:25.907Z,97646.88
2023-04-25T09:23:29.843Z,97652.84
2023-04-25T09:26:34.299Z,97646.59
2023-04-25T09:29:42.070Z,97653.56
2023-04-25T09:32:47.461Z,97651.09
2023-04-25T09:35:56.252Z,97647.91
2023-04-25T09:39:17.346Z,97641.56
2023-04-25T09:42:30.065Z,97645.06
2023-04-25T09:45:46.589Z,97648.09
2023-04-25T09:48:55.089Z,97645.28
2023-04-25T09:52:18.330Z,97649.88
2023-04-25T09:55:36.675Z,97645.41
2023-04-25T09:58:43.193Z,97641.06
2023-04-25T10:01:50.776Z,97647.50
2023-04-25T10:05:10.017Z,97633.97
2023-04-25T10:08:19.338Z,97645.91
2023-04-25T10:11:26.918Z,97654.03
2023-04-25T10:14:32.375Z,97645.94
2023-04-25T10:17:37.912Z,97638.66
2023-04-25T10:20:42.042Z,97646.59
2023-04-25T10:23:47.044Z,97646.72
2023-04-25T10:26:52.404Z,97644.84
2023-04-25T10:31:02.602Z,97641.03
2023-04-25T10:34:08.069Z,97637.50
2023-04-25T10:37:12.593Z,97630.41
2023-04-25T10:40:24.042Z,97632.56
2023-04-25T10:43:42.161Z,97635.09
2023-04-25T10:46:48.103Z,97646.44
2023-04-25T10:49:53.388Z,97637.78
2023-04-25T10:52:57.152Z,97638.91
2023-04-25T10:56:00.540Z,97628.22
2023-04-25T10:59:13.853Z,97632.31
2023-04-25T11:02:18.041Z,97638.53
2023-04-25T11:05:36.487Z,97634.97
2023-04-25T11:08:52.344Z,97645.97
2023-04-25T11:11:58.400Z,97631.06
2023-04-25T11:15:04.597Z,97632.44
2023-04-25T11:18:11.646Z,97636.69
2023-04-25T11:21:16.620Z,97639.97
2023-04-25T11:24:20.428Z,97642.97
2023-04-25T11:27:25.779Z,97641.16
2023-04-25T11:30:31.542Z,97650.19
2023-04-25T11:33:35.006Z,97648.56
2023-04-25T11:36:43.271Z,97637.59
2023-04-25T11:39:48.155Z,97639.66
2023-04-25T11:42:54.290Z,97640.13
2023-04-25T11:45:58.807Z,97640.66
2023-04-25T11:49:02.638Z,97647.91
2023-04-25T11:52:09.669Z,97644.13
2023-04-25T11:55:17.317Z,97635.19
2023-04-25T11:58:20.842Z,97642.81
2023-04-25T12:01:33.158Z,97647.09
2023-04-25T12:04:39.501Z,97634.13
2023-04-25T12:07:45.763Z,97644.34
2023-04-25T12:10:49.551Z,97652.44
2023-04-25T12:13:54.999Z,97639.88
2023-04-25T12:17:01.712Z,97639.88
2023-04-25T12:20:11.177Z,97644.72
2023-04-25T12:23:15.987Z,97637.63
2023-04-25T12:26:22.119Z,97645.81
2023-04-25T12:29:31.765Z,97643.16
2023-04-25T12:32:39.725Z,97654.53
2023-04-25T12:35:44.239Z,97645.16
2023-04-25T12:38:50.745Z,97647.41
2023-04-25T12:41:55.158Z,97643.94
2023-04-25T12:44:59.095Z,97649.66
2023-04-25T12:48:04.159Z,97658.06
2023-04-25T12:51:08.023Z,97646.88
2023-04-25T12:54:12.926Z,97654.59
2023-04-25T12:57:17.025Z,97642.31
2023-04-25T13:00:21.089Z,97642.97
2023-04-25T13:03:25.195Z,97651.50
2023-04-25T13:06:28.775Z,97642.34
2023-04-25T13:09:34.538Z,97653.78
2023-04-25T13:12:38.335Z,97649.00
2023-04-25T13:15:42.237Z,97638.25
2023-04-25T13:18:45.682Z,97643.72
2023-04-25T13:21:49.805Z,97642.66
2023-04-25T13:24:54.625Z,97638.91
2023-04-25T13:27:58.744Z,97645.41
2023-04-25T13:31:02.177Z,97649.19
2023-04-25T13:34:06.698Z,97653.28
2023-04-25T13:37:10.087Z,97654.84
2023-04-25T13:40:15.401Z,97646.22
2023-04-25T13:43:18.747Z,97649.94
2023-04-25T13:46:40.964Z,97644.22
2023-04-25T13:49:45.946Z,97652.94
2023-04-25T13:52:49.903Z,97650.19
2023-04-25T13:55:54.706Z,97646.09
2023-04-25T13:58:59.127Z,97650.47
2023-04-25T14:02:02.548Z,97639.94
2023-04-25T14:05:08.963Z,97645.13
2023-04-25T14:08:12.566Z,97649.22
2023-04-25T14:11:19.233Z,97647.66
2023-04-25T14:14:23.269Z,97643.31
2023-04-25T14:17:27.162Z,97648.13
2023-04-25T14:20:31.176Z,97653.47
2023-04-25T14:23:35.303Z,97652.59
2023-04-25T14:26:41.554Z,97652.53
2023-04-25T14:29:45.848Z,97659.00
2023-04-25T14:32:51.812Z,97658.94
2023-04-25T14:35:55.768Z,97658.06
2023-04-25T14:38:59.505Z,97668.88
2023-04-25T14:42:04.626Z,97658.94
2023-04-25T14:45:10.471Z,97661.78
2023-04-25T14:48:14.680Z,97662.97
2023-04-25T14:51:18.131Z,97672.47
2023-04-25T14:54:22.085Z,97672.47
2023-04-25T14:57:27.151Z,97665.53
2023-04-25T15:00:33.093Z,97665.91
2023-04-25T15:03:36.980Z,97666.81
2023-04-25T15:06:40.968Z,97666.38
2023-04-25T15:09:44.476Z,97670.22
2023-04-25T15:12:49.642Z,97671.38
2023-04-25T15:15:55.001Z,97673.34
2023-04-25T15:18:58.876Z,97683.38
2023-04-25T15:22:02.471Z,97672.78
2023-04-25T15:25:08.747Z,97671.97
2023-04-25T15:28:15.222Z,97681.19
2023-04-25T15:31:19.614Z,97675.75
2023-04-25T15:34:23.004Z,97676.28
2023-04-25T15:37:27.259Z,97664.91
2023-04-25T15:40:30.720Z,97672.78
2023-04-25T15:43:38.404Z,97675.22
2023-04-25T15:46:41.874Z,97672.53
2023-04-25T15:49:45.841Z,97667.38
2023-04-25T15:52:50.535Z,97675.81
2023-04-25T15:55:54.493Z,97671.94
2023-04-25T15:58:59.284Z,97674.66
2023-04-25T16:02:03.240Z,97679.59
2023-04-25T16:05:08.947Z,97689.34
2023-04-25T16:08:13.124Z,97670.59
2023-04-25T16:11:16.827Z,97674.84
2023-04-25T16:14:21.979Z,97671.16
2023-04-25T16:17:25.542Z,97661.53
2023-04-25T16:20:29.329Z,97669.81
2023-04-25T16:23:32.807Z,97675.16
2023-04-25T16:26:37.081Z,97683.78
2023-04-25T16:29:42.806Z,97677.56
2023-04-25T16:32:46.962Z,97685.50
2023-04-25T16:35:52.441Z,97679.31
2023-04-25T16:38:56.609Z,97676.06
2023-04-25T16:42:00.011Z,97679.53
2023-04-25T16:45:06.368Z,97679.41
2023-04-25T16:48:09.771Z,97681.38
2023-04-25T16:51:13.859Z,97684.41
2023-04-25T16:54:17.247Z,97680.38
2023-04-25T16:57:21.322Z,97683.44
2023-04-25T17:00:26.344Z,97700.91
2023-04-25T17:03:31.332Z,97697.38
2023-04-25T17:06:36.484Z,97700.09
2023-04-25T17:09:41.255Z,97704.31
2023-04-25T17:12:44.882Z,97711.28
2023-04-25T17:15:50.577Z,97713.19
2023-04-25T17:18:54.471Z,97713.50
2023-04-25T17:21:58.957Z,97698.28
2023-04-25T17:25:02.556Z,97715.22
2023-04-25T17:28:06.800Z,97723.06
2023-04-25T17:31:12.255Z,97722.22
2023-04-25T17:34:18.437Z,97726.25
2023-04-25T17:37:23.062Z,97728.69
2023-04-25T17:40:27.606Z,97736.81
2023-04-25T17:43:32.994Z,97736.91
2023-04-25T17:46:38.529Z,97747.38
2023-04-25T17:49:42.748Z,97740.13
2023-04-25T17:52:48.343Z,97743.16
2023-04-25T17:55:51.930Z,97753.03
2023-04-25T17:58:56.524Z,97767.28
2023-04-25T18:02:01.848Z,97763.47
2023-04-25T18:05:09.607Z,97769.38
2023-04-25T18:08:13.615Z,97769.91
2023-04-25T18:11:17.350Z,97774.47
2023-04-25T18:14:22.825Z,97785.28
2023-04-25T18:17:28.120Z,97789.84
2023-04-25T18:20:31.629Z,97789.63
2023-04-25T18:23:35.508Z,97791.03
2023-04-25T18:26:39.254Z,97804.81
2023-04-25T18:29:45.731Z,97808.69
2023-04-25T18:32:50.850Z,97815.81
2023-04-25T18:35:59.361Z,97811.38
2023-04-25T18:39:19.020Z,97818.69
2023-04-25T18:42:25.996Z,97816.97
2023-04-25T18:45:29.409Z,97823.84
2023-04-25T18:48:36.200Z,97833.38
2023-04-25T18:51:39.934Z,97821.50
2023-04-25T18:54:43.978Z,97825.81
2023-04-25T18:57:47.371Z,97837.72
2023-04-25T19:00:51.290Z,97845.09
2023-04-25T19:03:57.391Z,97847.66
2023-04-25T19:07:01.987Z,97853.78
2023-04-25T19:10:05.849Z,97844.78
2023-04-25T19:13:09.499Z,97850.28
2023-04-25T19:16:13.259Z,97843.75
2023-04-25T19:19:18.473Z,97843.06
2023-04-25T19:22:21.967Z,97854.53
2023-04-25T19:25:26.418Z,97868.69
2023-04-25T19:28:30.606Z,97874.88
2023-04-25T19:31:36.291Z,97878.38
2023-04-25T19:34:41.393Z,97883.31
2023-04-25T19:37:47.112Z,97883.31
2023-04-25T19:40:50.558Z,97891.38
2023-04-25T19:43:54.432Z,97889.16
2023-04-25T19:46:59.635Z,97889.00
2023-04-25T19:50:06.092Z,97883.75
2023-04-25T19:53:10.312Z,97897.88
2023-04-25T19:56:13.965Z,97892.13
2023-04-25T19:59:17.321Z,97899.66
2023-04-25T20:02:21.441Z,97905.94
2023-04-25T20:05:27.039Z,97905.09
2023-04-25T20:08:30.774Z,97886.75
2023-04-25T20:11:34.250Z,97902.28
2023-04-25T20:14:38.048Z,97901.94
2023-04-25T20:17:42.671Z,97902.38
2023-04-25T20:20:47.979Z,97904.84
2023-04-25T20:23:51.895Z,97905.91
2023-04-25T20:26:56.565Z,97898.75
2023-04-25T20:30:04.064Z,97904.22
2023-04-25T20:33:09.336Z,97910.63
2023-04-25T20:36:15.201Z,97908.78
2023-04-25T20:39:19.071Z,97911.47
2023-04-25T20:42:23.044Z,97915.19
2023-04-25T20:45:30.014Z,97914.59
2023-04-25T20:48:33.525Z,97913.56
2023-04-25T20:51:39.911Z,97911.31
2023-04-25T20:54:43.489Z,97909.44
2023-04-25T20:57:47.401Z,97912.97
2023-04-25T21:00:51.326Z,97912.63
2023-04-25T21:03:55.686Z,97916.69
2023-04-25T21:07:01.589Z,97913.06
2023-04-25T21:10:06.358Z,97915.38
2023-04-25T21:13:09.819Z,97912.72
2023-04-25T21:16:13.794Z,97923.97
2023-04-25T21:19:17.713Z,97932.25
2023-04-25T21:22:23.069Z,97925.22
2023-04-25T21:25:31.046Z,97928.94
2023-04-25T21:28:35.045Z,97924.03
2023-04-25T21:31:39.151Z,97932.91
2023-04-25T21:34:43.073Z,97946.56
2023-04-25T21:37:48.257Z,97938.97
2023-04-25T21:40:52.372Z,97935.47
2023-04-25T21:43:55.899Z,97941.88
2023-04-25T21:46:59.717Z,97937.56
2023-04-25T21:50:04.061Z,97947.25
2023-04-25T21:53:10.906Z,97953.44
2023-04-25T21:56:14.321Z,97951.59
2023-04-25T21:59:18.318Z,97956.13
2023-04-25T22:02:21.983Z,97957.84
2023-04-25T22:05:27.007Z,97963.44
2023-04-25T22:08:31.903Z,97970.44
2023-04-25T22:11:36.700Z,97961.34
2023-04-25T22:14:41.557Z,97969.63
2023-04-25T22:17:46.210Z,97967.59
2023-04-25T22:20:49.665Z,97967.03
2023-04-25T22:23:56.615Z,97978.00
2023-04-25T22:27:00.452Z,97985.06
2023-04-25T22:30:04.796Z,97979.09
2023-04-25T22:33:08.351Z,97980.59
2023-04-25T22:36:13.427Z,97988.47
2023-04-25T22:39:19.266Z,98000.25
2023-04-25T22:42:23.098Z,97999.88
2023-04-25T22:45:26.719Z,97997.41
2023-04-25T22:48:30.390Z,98001.13
2023-04-25T22:51:34.072Z,98002.78
2023-04-25T22:54:40.616Z,98010.47
2023-04-25T22:57:44.037Z,98008.00
2023-04-25T23:00:48.122Z,97997.72
2023-04-25T23:03:51.896Z,97992.16
2023-04-25T23:06:55.517Z,98005.22
2023-04-25T23:10:00.572Z,98002.75
2023-04-25T23:13:04.425Z,98009.38
2023-04-25T23:16:08.927Z,98010.63
2023-04-25T23:19:13.143Z,98016.91
2023-04-25T23:22:16.584Z,98016.13
2023-04-25T23:25:21.770Z,98017.00
2023-04-25T23:28:25.325Z,98019.94
2023-04-25T23:31:29.663Z,98014.84
2023-04-25T23:34:34.281Z,98026.44
2023-04-25T23:37:40.501Z,98037.00
2023-04-25T23:40:45.311Z,98025.69
2023-04-25T23:43:49.181Z,98037.72
2023-04-25T23:46:52.677Z,98029.34
2023-04-25T23:49:56.808Z,98035.59
2023-04-25T23:53:00.202Z,98045.13
2023-04-25T23:56:06.448Z,98040.81
2023-04-25T23:59:10.429Z,98040.44
